createdAt,value
2023-03-07T00:00:36.101Z,2.90
2023-03-07T00:03:08.103Z,2.90
2023-03-07T00:05:39.812Z,2.95
2023-03-07T00:08:12.118Z,2.97
2023-03-07T00:10:43.649Z,2.98
2023-03-07T00:13:15.100Z,2.84
2023-03-07T00:15:46.619Z,2.92
2023-03-07T00:18:18.063Z,2.94
2023-03-07T00:21:01.132Z,2.89
2023-03-07T00:23:34.304Z,2.90
2023-03-07T00:26:18.294Z,2.96
2023-03-07T00:28:51.698Z,2.95
2023-03-07T00:31:24.432Z,2.97
2023-03-07T00:33:55.976Z,2.97
2023-03-07T00:36:27.930Z,2.98
2023-03-07T00:38:59.428Z,3.01
2023-03-07T00:41:30.890Z,3.02
2023-03-07T00:44:02.627Z,3.05
2023-03-07T00:46:34.215Z,2.96
2023-03-07T00:49:05.686Z,2.94
2023-03-07T00:51:37.178Z,2.92
2023-03-07T00:54:08.795Z,2.92
2023-03-07T00:56:40.738Z,2.82
2023-03-07T00:59:12.600Z,2.89
2023-03-07T01:01:44.795Z,2.79
2023-03-07T01:04:16.341Z,2.68
2023-03-07T01:06:47.894Z,2.60
2023-03-07T01:09:19.358Z,2.64
2023-03-07T01:11:50.886Z,2.65
2023-03-07T01:14:22.582Z,2.68
2023-03-07T01:16:54.110Z,2.69
2023-03-07T01:19:25.756Z,2.71
2023-03-07T01:21:57.311Z,2.71
2023-03-07T01:24:28.814Z,2.74
2023-03-07T01:27:00.301Z,2.69
2023-03-07T01:29:31.828Z,2.71
2023-03-07T01:32:03.556Z,2.72
2023-03-07T01:34:35.089Z,2.67
2023-03-07T01:37:06.621Z,2.69
2023-03-07T01:39:38.076Z,2.71
2023-03-07T01:42:10.642Z,2.53
2023-03-07T01:45:02.605Z,2.51
2023-03-07T01:47:34.830Z,2.53
2023-03-07T01:50:11.746Z,2.48
2023-03-07T01:52:49.602Z,2.49
2023-03-07T01:55:30.814Z,2.53
2023-03-07T01:58:20.596Z,2.53
2023-03-07T02:00:52.124Z,2.57
2023-03-07T02:03:35.140Z,2.53
2023-03-07T02:06:10.512Z,2.52
2023-03-07T02:08:44.838Z,2.43
2023-03-07T02:11:17.023Z,2.51
2023-03-07T02:13:48.532Z,2.54
2023-03-07T02:16:20.431Z,2.59
2023-03-07T02:18:51.975Z,2.58
2023-03-07T02:21:23.491Z,2.54
2023-03-07T02:24:11.941Z,2.54
2023-03-07T02:26:45.426Z,2.58
2023-03-07T02:29:16.980Z,2.59
2023-03-07T02:31:48.481Z,2.63
2023-03-07T02:34:28.461Z,2.55
2023-03-07T02:37:27.295Z,2.50
2023-03-07T02:40:05.281Z,2.55
2023-03-07T02:42:41.166Z,2.57
2023-03-07T02:45:17.879Z,2.52
2023-03-07T02:47:49.481Z,2.54
2023-03-07T02:50:21.047Z,2.48
2023-03-07T02:52:52.525Z,2.50
2023-03-07T02:55:24.087Z,2.51
2023-03-07T02:57:55.741Z,2.53
2023-03-07T03:00:27.363Z,2.49
2023-03-07T03:02:58.921Z,2.42
2023-03-07T03:05:30.440Z,2.45
2023-03-07T03:08:01.982Z,2.44
2023-03-07T03:10:33.462Z,2.44
2023-03-07T03:13:05.399Z,2.49
2023-03-07T03:15:36.936Z,2.50
2023-03-07T03:18:08.494Z,2.54
2023-03-07T03:20:41.060Z,2.53
2023-03-07T03:23:12.607Z,2.48
2023-03-07T03:25:44.535Z,2.50
2023-03-07T03:28:16.210Z,2.53
2023-03-07T03:31:00.392Z,2.54
2023-03-07T03:33:32.078Z,2.49
2023-03-07T03:36:09.676Z,2.51
2023-03-07T03:38:41.475Z,2.45
2023-03-07T03:41:17.559Z,2.45
2023-03-07T03:43:49.186Z,2.47
2023-03-07T03:46:20.876Z,2.50
2023-03-07T03:48:54.137Z,2.50
2023-03-07T03:51:27.219Z,2.49
2023-03-07T03:53:58.861Z,2.47
2023-03-07T03:56:30.371Z,2.41
2023-03-07T03:59:01.827Z,2.48
2023-03-07T04:01:33.970Z,2.47
2023-03-07T04:04:05.604Z,2.50
2023-03-07T04:06:37.205Z,2.49
2023-03-07T04:09:09.755Z,2.31
2023-03-07T04:11:41.287Z,2.40
2023-03-07T04:14:12.807Z,2.39
2023-03-07T04:16:44.450Z,2.36
2023-03-07T04:19:16.029Z,2.31
2023-03-07T04:21:47.802Z,2.35
2023-03-07T04:24:19.424Z,2.34
2023-03-07T04:26:50.941Z,2.31
2023-03-07T04:29:22.520Z,2.31
2023-03-07T04:31:54.094Z,2.22
2023-03-07T04:34:25.702Z,2.15
2023-03-07T04:36:57.209Z,2.20
2023-03-07T04:39:28.676Z,2.22
2023-03-07T04:42:00.246Z,2.19
2023-03-07T04:44:31.860Z,2.20
2023-03-07T04:47:03.511Z,2.11
2023-03-07T04:49:35.161Z,2.09
2023-03-07T04:52:06.810Z,2.07
2023-03-07T04:54:38.774Z,2.05
2023-03-07T04:57:10.506Z,1.99
2023-03-07T04:59:42.015Z,1.97
2023-03-07T05:02:13.976Z,1.94
2023-03-07T05:04:45.832Z,1.93
2023-03-07T05:07:17.584Z,1.88
2023-03-07T05:09:49.371Z,1.85
2023-03-07T05:12:21.047Z,1.81
2023-03-07T05:14:52.548Z,1.76
2023-03-07T05:17:24.036Z,1.71
2023-03-07T05:19:55.538Z,1.71
2023-03-07T05:22:27.597Z,1.69
2023-03-07T05:24:59.063Z,1.68
2023-03-07T05:27:30.587Z,1.63
2023-03-07T05:30:02.295Z,1.53
2023-03-07T05:32:34.019Z,1.55
2023-03-07T05:35:06.418Z,1.55
2023-03-07T05:37:37.864Z,1.51
2023-03-07T05:40:10.610Z,1.55
2023-03-07T05:42:42.372Z,1.58
2023-03-07T05:45:13.957Z,1.60
2023-03-07T05:47:45.542Z,1.47
2023-03-07T05:50:19.027Z,1.49
2023-03-07T05:52:50.618Z,1.53
2023-03-07T05:55:22.249Z,1.51
2023-03-07T05:57:53.784Z,1.43
2023-03-07T06:00:25.585Z,1.35
2023-03-07T06:02:57.259Z,1.41
2023-03-07T06:05:28.901Z,1.45
2023-03-07T06:08:00.527Z,1.44
2023-03-07T06:10:32.612Z,1.48
2023-03-07T06:13:04.195Z,1.41
2023-03-07T06:15:35.680Z,1.45
2023-03-07T06:18:07.345Z,1.44
2023-03-07T06:20:38.816Z,1.47
2023-03-07T06:23:12.967Z,1.51
2023-03-07T06:25:44.785Z,1.55
2023-03-07T06:28:16.386Z,1.65
2023-03-07T06:30:48.261Z,1.73
2023-03-07T06:33:20.116Z,1.69
2023-03-07T06:35:51.831Z,1.80
2023-03-07T06:38:23.989Z,1.90
2023-03-07T06:40:56.614Z,1.97
2023-03-07T06:43:28.139Z,2.03
2023-03-07T06:46:00.003Z,2.05
2023-03-07T06:48:31.730Z,2.19
2023-03-07T06:51:08.116Z,2.19
2023-03-07T06:53:41.143Z,2.26
2023-03-07T06:56:12.738Z,2.31
2023-03-07T06:58:44.281Z,2.40
2023-03-07T07:01:20.906Z,2.39
2023-03-07T07:03:52.443Z,2.38
2023-03-07T07:06:24.064Z,2.52
2023-03-07T07:08:57.277Z,2.47
2023-03-07T07:11:28.762Z,2.50
2023-03-07T07:14:00.247Z,2.52
2023-03-07T07:16:33.680Z,2.63
2023-03-07T07:19:05.354Z,2.55
2023-03-07T07:21:36.827Z,2.45
2023-03-07T07:24:11.967Z,2.55
2023-03-07T07:26:43.643Z,2.59
2023-03-07T07:29:15.942Z,2.63
2023-03-07T07:31:47.622Z,2.69
2023-03-07T07:34:19.225Z,2.69
2023-03-07T07:36:50.821Z,2.72
2023-03-07T07:39:23.400Z,2.68
2023-03-07T07:41:54.913Z,2.64
2023-03-07T07:44:30.296Z,2.63
2023-03-07T07:47:01.858Z,2.65
2023-03-07T07:49:33.557Z,2.67
2023-03-07T07:52:05.237Z,2.73
2023-03-07T07:54:36.787Z,2.83
2023-03-07T07:57:08.281Z,2.81
2023-03-07T07:59:39.808Z,2.90
2023-03-07T08:02:13.826Z,3.04
2023-03-07T08:04:47.390Z,3.05
2023-03-07T08:07:18.918Z,3.13
2023-03-07T08:09:50.678Z,3.17
2023-03-07T08:12:22.197Z,3.24
2023-03-07T08:14:53.673Z,3.18
2023-03-07T08:17:25.224Z,3.26
2023-03-07T08:20:01.700Z,3.32
2023-03-07T08:22:33.433Z,3.31
2023-03-07T08:25:06.651Z,3.47
2023-03-07T08:27:38.208Z,3.48
2023-03-07T08:30:10.395Z,3.56
2023-03-07T08:32:41.954Z,3.58
2023-03-07T08:35:13.543Z,3.66
2023-03-07T08:37:45.640Z,3.79
2023-03-07T08:40:17.227Z,3.86
2023-03-07T08:42:49.965Z,3.79
2023-03-07T08:45:23.072Z,3.84
2023-03-07T08:47:56.842Z,3.99
2023-03-07T08:50:29.043Z,4.02
2023-03-07T08:53:00.687Z,4.06
2023-03-07T08:55:35.481Z,4.15
2023-03-07T08:58:07.525Z,4.19
2023-03-07T09:00:39.576Z,4.20
2023-03-07T09:03:11.356Z,4.16
2023-03-07T09:05:43.811Z,4.29
2023-03-07T09:08:15.768Z,4.23
2023-03-07T09:10:48.139Z,4.36
2023-03-07T09:13:19.550Z,4.44
2023-03-07T09:15:51.252Z,4.45
2023-03-07T09:18:23.295Z,4.45
2023-03-07T09:20:54.855Z,4.53
2023-03-07T09:23:26.770Z,4.63
2023-03-07T09:26:03.272Z,4.62
2023-03-07T09:28:34.785Z,4.71
2023-03-07T09:31:10.958Z,4.78
2023-03-07T09:33:44.711Z,4.84
2023-03-07T09:36:19.642Z,4.95
2023-03-07T09:38:51.469Z,5.07
2023-03-07T09:41:41.359Z,5.24
2023-03-07T09:44:23.338Z,5.34
2023-03-07T09:47:13.340Z,5.36
2023-03-07T09:49:47.233Z,5.61
2023-03-07T09:52:28.657Z,5.80
2023-03-07T09:55:03.461Z,5.84
2023-03-07T09:57:57.823Z,6.12
2023-03-07T10:00:36.724Z,5.86
2023-03-07T10:03:44.381Z,5.87
2023-03-07T10:06:30.601Z,5.87
2023-03-07T10:09:02.718Z,5.79
2023-03-07T10:12:29.788Z,5.97
2023-03-07T10:15:29.000Z,6.19
2023-03-07T10:18:26.503Z,6.35
2023-03-07T10:21:13.006Z,6.34
2023-03-07T10:23:51.156Z,6.34
2023-03-07T10:26:42.934Z,6.52
2023-03-07T10:29:19.519Z,6.64
2023-03-07T10:32:15.669Z,6.68
2023-03-07T10:34:57.100Z,6.58
2023-03-07T10:37:50.477Z,6.48
2023-03-07T10:40:27.267Z,6.71
2023-03-07T10:43:00.100Z,6.79
2023-03-07T10:45:33.418Z,6.77
2023-03-07T10:48:15.541Z,6.65
2023-03-07T10:51:01.362Z,6.76
2023-03-07T10:53:36.435Z,6.86
2023-03-07T10:56:18.151Z,6.74
2023-03-07T10:59:09.740Z,6.75
2023-03-07T11:01:54.551Z,6.85
2023-03-07T11:04:30.279Z,6.95
2023-03-07T11:07:02.708Z,7.09
2023-03-07T11:09:34.989Z,7.10
2023-03-07T11:12:06.476Z,7.03
2023-03-07T11:15:00.330Z,7.00
2023-03-07T11:17:46.546Z,7.21
2023-03-07T11:20:25.789Z,7.04
2023-03-07T11:23:12.660Z,7.30
2023-03-07T11:25:44.440Z,7.47
2023-03-07T11:28:31.372Z,7.55
2023-03-07T11:31:21.602Z,7.45
2023-03-07T11:34:06.524Z,7.66
2023-03-07T11:36:40.712Z,7.72
2023-03-07T11:39:19.064Z,7.87
2023-03-07T11:41:57.979Z,7.74
2023-03-07T11:44:48.201Z,7.92
2023-03-07T11:47:50.825Z,8.20
2023-03-07T11:50:28.969Z,8.11
2023-03-07T11:53:22.433Z,8.21
2023-03-07T11:56:15.879Z,8.08
2023-03-07T11:59:09.356Z,7.91
2023-03-07T12:01:47.248Z,8.11
2023-03-07T12:04:24.674Z,8.31
2023-03-07T12:07:05.164Z,8.73
2023-03-07T12:09:52.352Z,8.80
2023-03-07T12:12:35.944Z,8.70
2023-03-07T12:15:13.232Z,8.62
2023-03-07T12:18:21.908Z,8.65
2023-03-07T12:21:08.601Z,8.80
2023-03-07T12:23:49.245Z,8.67
2023-03-07T12:26:26.172Z,8.74
2023-03-07T12:29:31.948Z,8.03
2023-03-07T12:32:16.533Z,8.59
2023-03-07T12:34:56.072Z,8.69
2023-03-07T12:37:35.897Z,8.35
2023-03-07T12:40:19.694Z,8.59
2023-03-07T12:42:51.150Z,9.06
2023-03-07T12:45:33.589Z,9.08
2023-03-07T12:48:15.428Z,9.35
2023-03-07T12:51:04.710Z,9.80
2023-03-07T12:53:48.188Z,9.99
2023-03-07T12:57:03.989Z,9.07
2023-03-07T12:59:39.921Z,9.71
2023-03-07T13:02:16.415Z,9.85
2023-03-07T13:04:47.888Z,9.62
2023-03-07T13:07:26.660Z,10.47
2023-03-07T13:10:00.576Z,11.98
2023-03-07T13:12:38.765Z,14.43
2023-03-07T13:15:19.029Z,16.08
2023-03-07T13:17:50.476Z,16.88
2023-03-07T13:20:27.711Z,17.15
2023-03-07T13:23:12.204Z,18.00
2023-03-07T13:25:48.077Z,18.92
2023-03-07T13:28:36.059Z,18.78
2023-03-07T13:31:15.772Z,18.66
2023-03-07T13:33:48.127Z,16.91
2023-03-07T13:36:35.419Z,15.92
2023-03-07T13:39:35.617Z,15.55
2023-03-07T13:42:46.243Z,17.00
2023-03-07T13:45:39.674Z,18.08
2023-03-07T13:48:15.484Z,18.50
2023-03-07T13:50:53.564Z,18.25
2023-03-07T13:53:28.122Z,18.42
2023-03-07T13:56:15.112Z,16.78
2023-03-07T13:59:10.603Z,16.29
2023-03-07T14:02:12.817Z,15.64
2023-03-07T14:04:51.841Z,15.19
2023-03-07T14:07:36.943Z,15.28
2023-03-07T14:10:26.519Z,13.95
2023-03-07T14:13:13.593Z,13.73
2023-03-07T14:16:03.464Z,14.46
2023-03-07T14:19:00.811Z,14.17
2023-03-07T14:21:49.896Z,13.78
2023-03-07T14:24:52.275Z,13.83
2023-03-07T14:27:24.895Z,12.93
2023-03-07T14:29:57.184Z,13.22
2023-03-07T14:32:31.302Z,13.43
2023-03-07T14:35:02.898Z,13.76
2023-03-07T14:37:34.436Z,13.67
2023-03-07T14:40:13.134Z,12.68
2023-03-07T14:43:14.853Z,12.92
2023-03-07T14:45:58.215Z,12.53
2023-03-07T14:48:41.659Z,12.07
2023-03-07T14:51:17.450Z,11.88
2023-03-07T14:53:50.059Z,13.25
2023-03-07T14:56:28.341Z,14.32
2023-03-07T14:59:01.907Z,14.04
2023-03-07T15:01:37.018Z,15.61
2023-03-07T15:04:30.071Z,16.40
2023-03-07T15:07:04.640Z,16.21
2023-03-07T15:09:36.246Z,15.59
2023-03-07T15:12:23.103Z,13.49
2023-03-07T15:14:59.974Z,12.34
2023-03-07T15:17:44.701Z,11.92
2023-03-07T15:20:26.089Z,12.17
2023-03-07T15:23:07.872Z,13.36
2023-03-07T15:25:40.757Z,13.05
2023-03-07T15:28:23.192Z,13.67
2023-03-07T15:30:55.811Z,13.94
2023-03-07T15:33:28.351Z,14.95
2023-03-07T15:36:17.994Z,14.95
2023-03-07T15:38:51.198Z,13.93
2023-03-07T15:41:29.824Z,13.80
2023-03-07T15:44:19.440Z,12.50
2023-03-07T15:46:54.502Z,11.51
2023-03-07T15:49:40.671Z,11.08
2023-03-07T15:52:24.681Z,10.78
2023-03-07T15:55:00.085Z,9.51
2023-03-07T15:57:37.038Z,9.70
2023-03-07T16:00:16.739Z,9.23
2023-03-07T16:02:50.397Z,8.97
2023-03-07T16:05:22.959Z,8.35
2023-03-07T16:07:57.079Z,8.00
2023-03-07T16:10:31.512Z,7.82
2023-03-07T16:13:05.711Z,7.67
2023-03-07T16:15:37.273Z,7.37
2023-03-07T16:18:08.939Z,7.41
2023-03-07T16:20:40.453Z,7.36
2023-03-07T16:23:14.506Z,7.25
2023-03-07T16:25:46.551Z,7.30
2023-03-07T16:28:18.812Z,7.22
2023-03-07T16:30:50.345Z,7.24
2023-03-07T16:33:22.035Z,7.22
2023-03-07T16:35:53.638Z,6.99
2023-03-07T16:38:25.182Z,6.75
2023-03-07T16:40:57.670Z,6.63
2023-03-07T16:43:37.908Z,6.34
2023-03-07T16:46:16.328Z,6.29
2023-03-07T16:48:48.014Z,6.21
2023-03-07T16:51:25.683Z,6.04
2023-03-07T16:53:59.785Z,6.04
2023-03-07T16:56:38.583Z,5.97
2023-03-07T16:59:20.627Z,5.97
2023-03-07T17:01:54.688Z,6.02
2023-03-07T17:04:26.182Z,5.92
2023-03-07T17:07:04.597Z,5.87
2023-03-07T17:09:36.622Z,5.83
2023-03-07T17:12:08.568Z,5.79
2023-03-07T17:14:40.613Z,5.65
2023-03-07T17:17:22.137Z,5.57
2023-03-07T17:19:53.614Z,5.46
2023-03-07T17:22:25.222Z,5.43
2023-03-07T17:24:56.714Z,5.35
2023-03-07T17:27:28.427Z,5.31
2023-03-07T17:30:00.029Z,5.22
2023-03-07T17:32:31.551Z,5.18
2023-03-07T17:35:03.499Z,5.16
2023-03-07T17:37:35.527Z,5.19
2023-03-07T17:40:10.933Z,5.22
2023-03-07T17:42:43.716Z,5.24
2023-03-07T17:45:15.242Z,5.26
2023-03-07T17:47:54.028Z,5.20
2023-03-07T17:50:25.947Z,5.18
2023-03-07T17:52:58.093Z,5.19
2023-03-07T17:55:30.586Z,5.13
2023-03-07T17:58:02.153Z,5.06
2023-03-07T18:00:34.054Z,4.98
2023-03-07T18:03:07.454Z,4.97
2023-03-07T18:05:40.110Z,4.98
2023-03-07T18:08:11.961Z,4.99
2023-03-07T18:10:43.628Z,4.96
2023-03-07T18:13:15.224Z,4.96
2023-03-07T18:15:48.085Z,4.95
2023-03-07T18:18:19.643Z,4.94
2023-03-07T18:21:01.880Z,4.81
2023-03-07T18:23:35.342Z,4.83
2023-03-07T18:26:13.758Z,4.85
2023-03-07T18:28:47.476Z,4.82
2023-03-07T18:31:25.337Z,4.79
2023-03-07T18:33:57.071Z,4.79
2023-03-07T18:36:28.669Z,4.73
2023-03-07T18:39:01.253Z,4.71
2023-03-07T18:41:33.212Z,4.65
2023-03-07T18:44:05.114Z,4.68
2023-03-07T18:46:38.499Z,4.65
2023-03-07T18:49:10.150Z,4.65
2023-03-07T18:51:44.089Z,4.64
2023-03-07T18:54:15.925Z,4.59
2023-03-07T18:56:48.194Z,4.54
2023-03-07T18:59:23.633Z,4.46
2023-03-07T19:01:55.826Z,4.42
2023-03-07T19:04:27.530Z,4.38
2023-03-07T19:07:00.580Z,4.38
2023-03-07T19:09:32.181Z,4.33
2023-03-07T19:12:05.766Z,4.33
2023-03-07T19:14:37.967Z,4.29
2023-03-07T19:17:09.475Z,4.19
2023-03-07T19:19:41.218Z,4.18
2023-03-07T19:22:12.774Z,4.14
2023-03-07T19:24:44.768Z,4.16
2023-03-07T19:27:17.322Z,4.10
2023-03-07T19:29:48.889Z,4.06
2023-03-07T19:32:20.768Z,4.10
2023-03-07T19:34:52.357Z,4.08
2023-03-07T19:37:24.046Z,4.08
2023-03-07T19:39:55.709Z,4.04
2023-03-07T19:42:27.431Z,3.95
2023-03-07T19:44:58.983Z,3.89
2023-03-07T19:47:30.700Z,3.89
2023-03-07T19:50:03.392Z,3.91
2023-03-07T19:52:34.896Z,4.02
2023-03-07T19:55:07.045Z,4.04
2023-03-07T19:57:41.395Z,4.10
2023-03-07T20:00:13.815Z,4.17
2023-03-07T20:02:45.240Z,4.25
2023-03-07T20:05:16.916Z,4.27
2023-03-07T20:07:48.921Z,4.31
2023-03-07T20:10:21.551Z,4.32
2023-03-07T20:12:54.590Z,4.33
2023-03-07T20:15:27.683Z,4.35
2023-03-07T20:18:01.644Z,4.37
2023-03-07T20:20:36.258Z,4.45
2023-03-07T20:23:07.798Z,4.47
2023-03-07T20:25:39.439Z,4.48
2023-03-07T20:28:12.582Z,4.43
2023-03-07T20:30:44.132Z,4.42
2023-03-07T20:33:15.815Z,4.35
2023-03-07T20:35:47.551Z,4.29
2023-03-07T20:38:19.089Z,4.30
2023-03-07T20:41:00.294Z,4.19
2023-03-07T20:43:33.593Z,4.09
2023-03-07T20:46:12.816Z,4.11
2023-03-07T20:48:45.212Z,4.13
2023-03-07T20:51:20.402Z,4.03
2023-03-07T20:53:53.326Z,4.01
2023-03-07T20:56:27.044Z,4.02
2023-03-07T20:59:02.923Z,4.01
2023-03-07T21:01:36.398Z,4.08
2023-03-07T21:04:12.766Z,4.00
2023-03-07T21:06:45.307Z,4.02
2023-03-07T21:09:17.932Z,4.00
2023-03-07T21:11:50.166Z,3.84
2023-03-07T21:14:21.987Z,3.82
2023-03-07T21:16:53.534Z,3.81
2023-03-07T21:19:25.306Z,3.86
2023-03-07T21:21:59.781Z,3.93
2023-03-07T21:24:31.669Z,3.93
2023-03-07T21:27:03.240Z,3.90
2023-03-07T21:29:34.823Z,3.85
2023-03-07T21:32:06.445Z,3.90
2023-03-07T21:34:38.392Z,3.93
2023-03-07T21:37:10.371Z,3.84
2023-03-07T21:39:42.106Z,3.85
2023-03-07T21:42:13.718Z,3.88
2023-03-07T21:44:46.285Z,3.92
2023-03-07T21:47:20.374Z,3.93
2023-03-07T21:49:52.892Z,3.95
2023-03-07T21:52:24.442Z,4.00
2023-03-07T21:54:57.134Z,4.04
2023-03-07T21:57:29.789Z,4.04
2023-03-07T22:00:01.294Z,4.11
2023-03-07T22:02:32.835Z,4.11
2023-03-07T22:05:05.124Z,4.12
2023-03-07T22:07:36.913Z,4.19
2023-03-07T22:10:09.297Z,4.03
2023-03-07T22:12:40.614Z,3.99
2023-03-07T22:15:12.150Z,3.98
2023-03-07T22:17:46.604Z,3.94
2023-03-07T22:20:18.293Z,3.93
2023-03-07T22:22:49.905Z,3.89
2023-03-07T22:25:21.473Z,3.92
2023-03-07T22:27:53.342Z,4.02
2023-03-07T22:30:24.847Z,3.94
2023-03-07T22:32:56.355Z,4.04
2023-03-07T22:35:28.288Z,3.97
2023-03-07T22:37:59.797Z,4.07
2023-03-07T22:40:32.587Z,4.10
2023-03-07T22:43:04.196Z,4.10
2023-03-07T22:45:35.758Z,4.11
2023-03-07T22:48:07.272Z,4.12
2023-03-07T22:50:39.312Z,4.06
2023-03-07T22:53:10.894Z,4.11
2023-03-07T22:55:43.445Z,4.13
2023-03-07T22:58:15.276Z,4.07
2023-03-07T23:00:48.268Z,4.06
2023-03-07T23:03:20.101Z,4.03
2023-03-07T23:05:51.801Z,4.05
2023-03-07T23:08:23.363Z,4.09
2023-03-07T23:11:03.671Z,4.11
2023-03-07T23:13:35.411Z,4.10
2023-03-07T23:16:16.775Z,4.04
2023-03-07T23:18:50.778Z,4.05
2023-03-07T23:21:26.338Z,4.01
2023-03-07T23:23:59.065Z,4.02
2023-03-07T23:26:36.168Z,4.04
2023-03-07T23:29:09.733Z,3.98
2023-03-07T23:31:42.923Z,4.05
2023-03-07T23:34:18.001Z,3.93
2023-03-07T23:36:49.781Z,3.96
2023-03-07T23:39:21.823Z,3.92
2023-03-07T23:41:53.768Z,3.94
2023-03-07T23:44:25.352Z,3.94
2023-03-07T23:46:56.849Z,3.87
2023-03-07T23:49:28.341Z,3.90
2023-03-07T23:51:59.791Z,3.91
2023-03-07T23:54:31.571Z,3.84
2023-03-07T23:57:03.233Z,3.87
2023-03-07T23:59:34.754Z,3.89
